createdAt,value
2022-09-28T00:02:41.132Z,15.89
2022-09-28T00:05:43.007Z,15.92
2022-09-28T00:08:45.038Z,15.92
2022-09-28T00:11:47.492Z,15.92
2022-09-28T00:14:49.250Z,15.93
2022-09-28T00:17:51.135Z,15.93
2022-09-28T00:21:09.312Z,15.96
2022-09-28T00:24:17.341Z,15.97
2022-09-28T00:27:19.120Z,15.97
2022-09-28T00:30:20.943Z,15.98
2022-09-28T00:33:22.741Z,16.00
2022-09-28T00:36:27.124Z,16.02
2022-09-28T00:39:31.700Z,16.00
2022-09-28T00:42:33.675Z,16.01
2022-09-28T00:45:35.439Z,16.02
2022-09-28T00:48:40.626Z,16.03
2022-09-28T00:51:45.579Z,16.06
2022-09-28T00:54:49.288Z,16.06
2022-09-28T00:57:56.052Z,16.07
2022-09-28T01:00:59.325Z,16.06
2022-09-28T01:04:02.985Z,16.07
2022-09-28T01:07:05.362Z,16.07
2022-09-28T01:10:08.084Z,16.08
2022-09-28T01:13:11.218Z,16.07
2022-09-28T01:16:38.890Z,16.05
2022-09-28T01:19:59.926Z,16.07
2022-09-28T01:23:21.225Z,16.10
2022-09-28T01:26:41.897Z,16.09
2022-09-28T01:29:55.510Z,16.12
2022-09-28T01:33:05.855Z,16.12
2022-09-28T01:36:26.516Z,16.11
2022-09-28T01:39:42.674Z,16.14
2022-09-28T01:42:50.535Z,16.14
2022-09-28T01:46:08.014Z,16.16
2022-09-28T01:49:16.373Z,16.13
2022-09-28T01:52:24.773Z,16.13
2022-09-28T01:55:37.395Z,16.12
2022-09-28T01:58:54.545Z,16.13
2022-09-28T02:02:12.637Z,16.13
2022-09-28T02:05:20.164Z,16.11
2022-09-28T02:08:29.055Z,16.08
2022-09-28T02:11:32.463Z,16.03
2022-09-28T02:14:38.012Z,16.03
2022-09-28T02:17:40.160Z,16.05
2022-09-28T02:20:47.586Z,16.01
2022-09-28T02:24:03.845Z,16.04
2022-09-28T02:27:18.904Z,16.04
2022-09-28T02:30:21.315Z,16.02
2022-09-28T02:33:34.990Z,16.06
2022-09-28T02:36:37.182Z,16.03
2022-09-28T02:39:39.183Z,16.04
2022-09-28T02:42:52.652Z,16.03
2022-09-28T02:46:22.331Z,16.01
2022-09-28T02:50:06.421Z,16.00
2022-09-28T02:53:41.058Z,16.01
2022-09-28T02:56:55.115Z,15.99
2022-09-28T03:00:10.285Z,15.95
2022-09-28T03:03:32.005Z,15.99
2022-09-28T03:06:46.025Z,15.99
2022-09-28T03:10:20.188Z,15.96
2022-09-28T03:13:22.851Z,15.94
2022-09-28T03:16:24.706Z,15.88
2022-09-28T03:19:31.560Z,15.74
2022-09-28T03:22:34.727Z,15.80
2022-09-28T03:25:36.514Z,15.81
2022-09-28T03:28:38.494Z,15.84
2022-09-28T03:31:41.796Z,15.87
2022-09-28T03:34:43.802Z,15.88
2022-09-28T03:37:46.625Z,15.87
2022-09-28T03:40:55.870Z,15.84
2022-09-28T03:43:58.122Z,15.83
2022-09-28T03:47:02.189Z,15.85
2022-09-28T03:50:04.163Z,15.81
2022-09-28T03:53:06.001Z,15.81
2022-09-28T03:56:11.942Z,15.76
2022-09-28T03:59:14.585Z,15.78
2022-09-28T04:02:16.427Z,15.79
2022-09-28T04:05:18.232Z,15.78
2022-09-28T04:08:20.093Z,15.77
2022-09-28T04:11:22.010Z,15.71
2022-09-28T04:14:24.684Z,15.69
2022-09-28T04:17:26.555Z,15.70
2022-09-28T04:20:28.902Z,15.74
2022-09-28T04:23:36.926Z,15.74
2022-09-28T04:26:38.934Z,15.74
2022-09-28T04:29:43.986Z,15.61
2022-09-28T04:32:49.162Z,15.59
2022-09-28T04:35:51.725Z,15.60
2022-09-28T04:38:53.789Z,15.58
2022-09-28T04:41:58.417Z,15.54
2022-09-28T04:45:02.292Z,15.59
2022-09-28T04:48:07.532Z,15.59
2022-09-28T04:51:31.090Z,15.57
2022-09-28T04:54:33.129Z,15.57
2022-09-28T04:57:35.575Z,15.60
2022-09-28T05:00:37.629Z,15.64
2022-09-28T05:04:02.474Z,15.65
2022-09-28T05:07:42.375Z,15.66
2022-09-28T05:10:44.367Z,15.69
2022-09-28T05:13:46.400Z,15.74
2022-09-28T05:16:51.055Z,15.82
2022-09-28T05:20:09.770Z,15.87
2022-09-28T05:23:12.899Z,15.91
2022-09-28T05:26:16.794Z,15.93
2022-09-28T05:29:18.723Z,15.83
2022-09-28T05:32:51.058Z,15.89
2022-09-28T05:36:01.067Z,15.85
2022-09-28T05:39:04.324Z,15.93
2022-09-28T05:42:08.010Z,15.93
2022-09-28T05:45:10.471Z,15.93
2022-09-28T05:48:14.646Z,15.88
2022-09-28T05:51:16.850Z,15.74
2022-09-28T05:54:18.840Z,15.74
2022-09-28T05:57:21.811Z,15.64
2022-09-28T06:00:23.740Z,15.51
2022-09-28T06:03:29.336Z,15.40
2022-09-28T06:06:31.328Z,15.30
2022-09-28T06:09:33.102Z,15.26
2022-09-28T06:12:48.010Z,15.22
2022-09-28T06:15:51.179Z,15.22
2022-09-28T06:18:53.038Z,15.15
2022-09-28T06:22:10.735Z,14.96
2022-09-28T06:25:24.223Z,15.01
2022-09-28T06:28:27.182Z,15.07
2022-09-28T06:31:31.160Z,15.02
2022-09-28T06:34:34.952Z,15.04
2022-09-28T06:37:36.725Z,15.02
2022-09-28T06:40:39.496Z,15.12
2022-09-28T06:43:41.702Z,15.21
2022-09-28T06:47:01.871Z,15.21
2022-09-28T06:50:16.804Z,15.15
2022-09-28T06:53:29.540Z,15.02
2022-09-28T06:56:34.093Z,15.16
2022-09-28T06:59:35.828Z,15.20
2022-09-28T07:02:37.808Z,15.11
2022-09-28T07:05:48.455Z,15.18
2022-09-28T07:09:28.047Z,15.10
2022-09-28T07:12:55.352Z,14.87
2022-09-28T07:16:08.739Z,14.89
2022-09-28T07:19:11.170Z,14.81
2022-09-28T07:22:18.818Z,14.69
2022-09-28T07:25:23.784Z,14.90
2022-09-28T07:28:45.779Z,14.74
2022-09-28T07:32:15.054Z,14.82
2022-09-28T07:35:31.902Z,14.62
2022-09-28T07:38:35.506Z,14.71
2022-09-28T07:41:39.722Z,14.69
2022-09-28T07:44:43.163Z,14.68
2022-09-28T07:47:45.902Z,14.73
2022-09-28T07:51:09.899Z,14.70
2022-09-28T07:54:17.887Z,14.64
2022-09-28T07:57:48.191Z,14.77
2022-09-28T08:01:01.089Z,14.84
2022-09-28T08:04:03.576Z,14.86
2022-09-28T08:07:10.579Z,14.86
2022-09-28T08:10:12.738Z,14.81
2022-09-28T08:13:34.770Z,14.78
2022-09-28T08:16:56.088Z,14.82
2022-09-28T08:20:28.507Z,14.87
2022-09-28T08:23:30.510Z,14.99
2022-09-28T08:26:32.295Z,15.01
2022-09-28T08:29:34.343Z,14.94
2022-09-28T08:33:12.470Z,15.02
2022-09-28T08:36:18.173Z,15.05
2022-09-28T08:39:28.961Z,14.98
2022-09-28T08:43:03.114Z,15.03
2022-09-28T08:46:27.265Z,15.07
2022-09-28T08:49:50.357Z,15.06
2022-09-28T08:53:29.271Z,15.09
2022-09-28T08:57:10.497Z,15.15
2022-09-28T09:00:31.327Z,15.10
2022-09-28T09:03:39.451Z,15.21
2022-09-28T09:07:22.692Z,15.27
2022-09-28T09:10:52.323Z,15.37
2022-09-28T09:14:29.073Z,15.40
2022-09-28T09:17:44.262Z,15.59
2022-09-28T09:20:58.545Z,15.75
2022-09-28T09:24:50.609Z,15.84
2022-09-28T09:28:09.362Z,16.00
2022-09-28T09:31:32.367Z,16.14
2022-09-28T09:34:57.977Z,16.20
2022-09-28T09:38:40.958Z,16.30
2022-09-28T09:42:16.568Z,16.35
2022-09-28T09:46:10.330Z,16.36
2022-09-28T09:49:35.085Z,16.34
2022-09-28T09:52:58.182Z,16.31
2022-09-28T09:56:08.926Z,16.22
2022-09-28T09:59:27.792Z,16.26
2022-09-28T10:02:51.045Z,16.20
2022-09-28T10:06:19.313Z,16.17
2022-09-28T10:09:30.964Z,16.20
2022-09-28T10:12:51.179Z,16.29
2022-09-28T10:15:53.383Z,16.29
2022-09-28T10:19:01.519Z,16.29
2022-09-28T10:22:25.666Z,16.38
2022-09-28T10:25:30.087Z,16.44
2022-09-28T10:28:48.164Z,16.49
2022-09-28T10:31:52.896Z,16.53
2022-09-28T10:35:47.879Z,16.48
2022-09-28T10:38:50.164Z,16.49
2022-09-28T10:42:04.379Z,16.44
2022-09-28T10:45:23.778Z,16.50
2022-09-28T10:48:31.639Z,16.51
2022-09-28T10:51:56.648Z,16.52
2022-09-28T10:55:25.827Z,16.50
2022-09-28T10:58:40.586Z,16.63
2022-09-28T11:01:46.024Z,16.70
2022-09-28T11:04:56.358Z,16.74
2022-09-28T11:08:02.837Z,16.79
2022-09-28T11:11:16.230Z,16.84
2022-09-28T11:14:31.923Z,16.88
2022-09-28T11:17:41.561Z,16.96
2022-09-28T11:20:45.880Z,17.02
2022-09-28T11:24:05.956Z,17.05
2022-09-28T11:27:23.795Z,17.03
2022-09-28T11:30:42.336Z,17.07
2022-09-28T11:34:14.925Z,17.07
2022-09-28T11:37:41.377Z,17.02
2022-09-28T11:40:58.967Z,16.93
2022-09-28T11:44:20.974Z,16.93
2022-09-28T11:47:53.616Z,16.91
2022-09-28T11:51:18.548Z,16.83
2022-09-28T11:54:34.159Z,16.86
2022-09-28T11:57:42.535Z,16.94
2022-09-28T12:00:51.298Z,17.04
2022-09-28T12:04:00.519Z,17.10
2022-09-28T12:07:16.237Z,17.19
2022-09-28T12:10:39.409Z,17.25
2022-09-28T12:13:48.179Z,17.32
2022-09-28T12:17:25.853Z,17.35
2022-09-28T12:20:32.685Z,17.36
2022-09-28T12:23:37.209Z,17.38
2022-09-28T12:26:38.911Z,17.42
2022-09-28T12:29:51.604Z,17.44
2022-09-28T12:33:03.956Z,17.44
2022-09-28T12:36:30.494Z,17.41
2022-09-28T12:39:56.492Z,17.39
2022-09-28T12:43:05.548Z,17.34
2022-09-28T12:46:19.364Z,17.35
2022-09-28T12:50:36.620Z,17.30
2022-09-28T12:53:49.137Z,17.32
2022-09-28T12:57:05.135Z,17.28
2022-09-28T13:00:35.077Z,17.29
2022-09-28T13:04:07.578Z,17.08
2022-09-28T13:07:40.297Z,17.04
2022-09-28T13:10:51.356Z,17.08
2022-09-28T13:14:15.189Z,16.97
2022-09-28T13:17:38.795Z,17.05
2022-09-28T13:21:04.145Z,17.07
2022-09-28T13:24:31.207Z,17.08
2022-09-28T13:27:39.769Z,17.06
2022-09-28T13:30:44.005Z,17.03
2022-09-28T13:33:47.930Z,17.00
2022-09-28T13:37:16.888Z,16.97
2022-09-28T13:40:19.199Z,16.92
2022-09-28T13:43:32.404Z,16.93
2022-09-28T13:46:48.975Z,16.89
2022-09-28T13:50:12.157Z,16.82
2022-09-28T13:53:29.037Z,16.82
2022-09-28T13:56:59.610Z,16.79
2022-09-28T14:00:17.599Z,16.79
2022-09-28T14:03:34.186Z,16.75
2022-09-28T14:06:42.811Z,16.69
2022-09-28T14:10:07.986Z,16.67
2022-09-28T14:13:10.446Z,16.68
2022-09-28T14:16:18.879Z,16.69
2022-09-28T14:19:33.433Z,16.67
2022-09-28T14:22:55.695Z,16.65
2022-09-28T14:26:43.839Z,16.62
2022-09-28T14:29:49.770Z,16.59
2022-09-28T14:32:56.949Z,16.61
2022-09-28T14:36:02.303Z,16.61
2022-09-28T14:39:22.613Z,16.62
2022-09-28T14:42:25.883Z,16.60
2022-09-28T14:45:37.905Z,16.57
2022-09-28T14:49:00.259Z,16.51
2022-09-28T14:52:03.557Z,16.45
2022-09-28T14:55:13.860Z,16.43
2022-09-28T14:58:22.502Z,16.38
2022-09-28T15:01:25.988Z,16.31
2022-09-28T15:04:30.815Z,16.22
2022-09-28T15:07:52.511Z,16.11
2022-09-28T15:10:54.313Z,16.01
2022-09-28T15:14:07.654Z,15.92
2022-09-28T15:17:11.282Z,15.83
2022-09-28T15:20:17.579Z,15.74
2022-09-28T15:23:37.742Z,15.67
2022-09-28T15:26:39.578Z,15.57
2022-09-28T15:30:01.873Z,15.46
2022-09-28T15:33:23.355Z,15.37
2022-09-28T15:36:31.200Z,15.24
2022-09-28T15:39:34.809Z,15.13
2022-09-28T15:42:37.056Z,15.03
2022-09-28T15:45:44.133Z,14.90
2022-09-28T15:48:45.951Z,14.80
2022-09-28T15:51:52.814Z,14.72
2022-09-28T15:54:55.494Z,14.63
2022-09-28T15:58:17.690Z,14.47
2022-09-28T16:01:31.923Z,14.42
2022-09-28T16:04:48.190Z,14.34
2022-09-28T16:07:56.126Z,14.26
2022-09-28T16:11:17.397Z,14.20
2022-09-28T16:14:26.321Z,14.11
2022-09-28T16:17:34.991Z,14.04
2022-09-28T16:20:41.369Z,13.99
2022-09-28T16:23:52.900Z,13.95
2022-09-28T16:27:25.030Z,13.87
2022-09-28T16:30:34.583Z,13.80
2022-09-28T16:33:54.132Z,13.71
2022-09-28T16:36:58.198Z,13.69
2022-09-28T16:40:04.398Z,13.67
2022-09-28T16:43:17.312Z,13.66
2022-09-28T16:46:36.324Z,13.66
2022-09-28T16:49:40.675Z,13.64
2022-09-28T16:53:04.449Z,13.65
2022-09-28T16:56:07.096Z,13.62
2022-09-28T16:59:13.676Z,13.61
2022-09-28T17:02:45.663Z,13.63
2022-09-28T17:05:48.033Z,13.64
2022-09-28T17:08:51.761Z,13.64
2022-09-28T17:11:57.858Z,13.66
2022-09-28T17:15:00.368Z,13.64
2022-09-28T17:18:03.672Z,13.65
2022-09-28T17:21:16.111Z,13.65
2022-09-28T17:24:19.192Z,13.61
2022-09-28T17:27:24.647Z,13.59
2022-09-28T17:30:26.597Z,13.56
2022-09-28T17:33:29.154Z,13.55
2022-09-28T17:36:31.625Z,13.57
2022-09-28T17:39:34.971Z,13.58
2022-09-28T17:42:37.569Z,13.61
2022-09-28T17:49:03.526Z,13.62
2022-09-28T17:52:14.158Z,13.65
2022-09-28T17:55:32.001Z,13.66
2022-09-28T17:58:34.696Z,13.66
2022-09-28T18:01:39.500Z,13.69
2022-09-28T18:04:51.739Z,13.69
2022-09-28T18:07:58.929Z,13.69
2022-09-28T18:11:01.766Z,13.69
2022-09-28T18:14:07.822Z,13.70
2022-09-28T18:17:12.955Z,13.68
2022-09-28T18:20:16.993Z,13.65
2022-09-28T18:23:20.770Z,13.63
2022-09-28T18:26:28.035Z,13.61
2022-09-28T18:29:33.676Z,13.61
2022-09-28T18:32:39.312Z,13.59
2022-09-28T18:35:54.483Z,13.55
2022-09-28T18:39:02.378Z,13.50
2022-09-28T18:42:07.112Z,13.48
2022-09-28T18:45:11.343Z,13.44
2022-09-28T18:48:13.666Z,13.39
2022-09-28T18:51:15.870Z,13.33
2022-09-28T18:54:20.905Z,13.28
2022-09-28T18:57:29.021Z,13.24
2022-09-28T19:00:32.577Z,13.16
2022-09-28T19:03:35.770Z,13.10
2022-09-28T19:06:44.745Z,13.05
2022-09-28T19:09:47.221Z,12.97
2022-09-28T19:12:52.420Z,12.89
2022-09-28T19:15:55.656Z,12.82
2022-09-28T19:18:59.575Z,12.74
2022-09-28T19:22:02.255Z,12.68
2022-09-28T19:25:04.402Z,12.62
2022-09-28T19:28:07.583Z,12.56
2022-09-28T19:31:17.883Z,12.52
2022-09-28T19:34:24.421Z,12.44
2022-09-28T19:37:26.326Z,12.37
2022-09-28T19:40:28.073Z,12.30
2022-09-28T19:43:31.218Z,12.25
2022-09-28T19:46:35.985Z,12.21
2022-09-28T19:49:40.049Z,12.16
2022-09-28T19:52:42.391Z,12.10
2022-09-28T19:55:50.880Z,12.04
2022-09-28T19:58:52.650Z,12.00
2022-09-28T20:01:56.390Z,11.95
2022-09-28T20:04:58.262Z,11.92
2022-09-28T20:08:00.071Z,11.87
2022-09-28T20:11:03.137Z,11.85
2022-09-28T20:14:09.723Z,11.80
2022-09-28T20:17:19.306Z,11.77
2022-09-28T20:20:21.232Z,11.76
2022-09-28T20:23:23.272Z,11.75
2022-09-28T20:26:26.903Z,11.76
2022-09-28T20:29:31.642Z,11.78
2022-09-28T20:32:35.288Z,11.72
2022-09-28T20:35:39.566Z,11.68
2022-09-28T20:38:42.074Z,11.69
2022-09-28T20:41:46.057Z,11.66
2022-09-28T20:44:47.903Z,11.63
2022-09-28T20:47:49.842Z,11.61
2022-09-28T20:51:03.225Z,11.57
2022-09-28T20:54:05.278Z,11.52
2022-09-28T20:57:18.792Z,11.45
2022-09-28T21:00:22.819Z,11.44
2022-09-28T21:03:25.131Z,11.40
2022-09-28T21:06:33.300Z,11.40
2022-09-28T21:09:35.431Z,11.37
2022-09-28T21:12:40.819Z,11.32
2022-09-28T21:15:42.743Z,11.33
2022-09-28T21:18:44.904Z,11.33
2022-09-28T21:21:47.192Z,11.30
2022-09-28T21:24:49.040Z,11.29
2022-09-28T21:27:52.188Z,11.26
2022-09-28T21:30:54.031Z,11.22
2022-09-28T21:33:59.418Z,11.19
2022-09-28T21:37:01.200Z,11.16
2022-09-28T21:40:06.349Z,11.10
2022-09-28T21:43:08.079Z,11.01
2022-09-28T21:46:12.700Z,11.01
2022-09-28T21:49:14.518Z,10.99
2022-09-28T21:52:16.682Z,10.98
2022-09-28T21:55:25.287Z,10.96
2022-09-28T21:58:29.699Z,10.94
2022-09-28T22:01:31.909Z,10.92
2022-09-28T22:04:33.790Z,10.88
2022-09-28T22:07:35.812Z,10.83
2022-09-28T22:10:37.813Z,10.78
2022-09-28T22:13:42.004Z,10.75
2022-09-28T22:16:43.841Z,10.74
2022-09-28T22:19:45.629Z,10.71
2022-09-28T22:22:50.878Z,10.69
2022-09-28T22:26:01.461Z,10.60
2022-09-28T22:29:08.708Z,10.59
2022-09-28T22:32:10.625Z,10.58
2022-09-28T22:35:12.389Z,10.59
2022-09-28T22:38:14.210Z,10.66
2022-09-28T22:41:18.757Z,10.74
2022-09-28T22:44:20.637Z,10.79
2022-09-28T22:47:22.448Z,10.80
2022-09-28T22:50:24.263Z,10.80
2022-09-28T22:53:26.589Z,10.76
2022-09-28T22:56:29.120Z,10.69
2022-09-28T22:59:30.869Z,10.69
2022-09-28T23:02:32.687Z,10.67
2022-09-28T23:05:34.745Z,10.63
2022-09-28T23:08:36.639Z,10.61
2022-09-28T23:11:38.608Z,10.58
2022-09-28T23:14:40.564Z,10.57
2022-09-28T23:17:45.031Z,10.55
2022-09-28T23:20:56.313Z,10.55
2022-09-28T23:24:01.720Z,10.55
2022-09-28T23:27:03.762Z,10.54
2022-09-28T23:30:07.691Z,10.54
2022-09-28T23:33:17.319Z,10.52
2022-09-28T23:36:19.108Z,10.50
2022-09-28T23:39:21.034Z,10.47
2022-09-28T23:42:22.915Z,10.46
2022-09-28T23:45:25.215Z,10.44
2022-09-28T23:48:27.224Z,10.42
2022-09-28T23:51:29.135Z,10.40
2022-09-28T23:54:31.362Z,10.34
2022-09-28T23:57:33.190Z,10.31
